createdAt,value
2019-03-06T00:00:52.067Z,7.77
2019-03-06T00:03:19.521Z,7.77
2019-03-06T00:05:49.020Z,7.73
2019-03-06T00:08:16.468Z,7.43
2019-03-06T00:10:46.322Z,8.13
2019-03-06T00:13:16.417Z,7.47
2019-03-06T00:15:44.160Z,7.83
2019-03-06T00:18:11.592Z,7.93
2019-03-06T00:20:39.016Z,8.30
2019-03-06T00:23:06.431Z,7.37
2019-03-06T00:25:33.871Z,7.23
2019-03-06T00:28:02.302Z,7.10
2019-03-06T00:30:32.158Z,7.50
2019-03-06T00:33:00.834Z,7.57
2019-03-06T00:35:34.021Z,7.53
2019-03-06T00:38:02.806Z,7.00
2019-03-06T00:40:48.029Z,7.13
2019-03-06T00:43:17.936Z,7.43
2019-03-06T00:45:45.339Z,7.27
2019-03-06T00:48:16.167Z,7.20
2019-03-06T00:50:43.576Z,7.23
2019-03-06T00:53:11.071Z,6.63
2019-03-06T00:55:38.496Z,6.47
2019-03-06T00:58:09.631Z,6.90
2019-03-06T01:00:37.060Z,6.47
2019-03-06T01:03:07.934Z,5.97
2019-03-06T01:05:35.450Z,6.63
2019-03-06T01:08:02.883Z,6.83
2019-03-06T01:10:30.307Z,7.30
2019-03-06T01:13:00.681Z,7.33
2019-03-06T01:15:29.272Z,6.83
2019-03-06T01:17:56.707Z,6.90
2019-03-06T01:20:24.157Z,6.50
2019-03-06T01:22:51.615Z,6.77
2019-03-06T01:25:19.063Z,6.23
2019-03-06T01:27:49.360Z,6.40
2019-03-06T01:30:19.816Z,6.80
2019-03-06T01:32:47.246Z,6.00
2019-03-06T01:35:33.157Z,6.53
2019-03-06T01:38:00.654Z,6.13
2019-03-06T01:40:39.947Z,6.10
2019-03-06T01:43:07.410Z,5.80
2019-03-06T01:45:34.836Z,5.90
2019-03-06T01:48:02.284Z,6.30
2019-03-06T01:50:29.723Z,6.50
2019-03-06T01:52:59.647Z,5.97
2019-03-06T01:55:27.836Z,6.17
2019-03-06T01:57:55.266Z,6.00
2019-03-06T02:00:22.724Z,6.50
2019-03-06T02:02:53.192Z,5.80
2019-03-06T02:05:20.918Z,5.80
2019-03-06T02:07:48.373Z,5.97
2019-03-06T02:10:15.813Z,5.80
2019-03-06T02:12:43.252Z,5.67
2019-03-06T02:15:14.725Z,5.70
2019-03-06T02:17:42.168Z,5.50
2019-03-06T02:20:14.525Z,5.83
2019-03-06T02:22:41.967Z,5.73
2019-03-06T02:25:09.410Z,5.77
2019-03-06T02:27:38.229Z,5.73
2019-03-06T02:30:08.081Z,5.60
2019-03-06T02:32:37.786Z,5.23
2019-03-06T02:35:05.241Z,5.30
2019-03-06T02:37:32.699Z,6.37
2019-03-06T02:40:00.385Z,5.30
2019-03-06T02:42:27.604Z,5.63
2019-03-06T02:44:55.013Z,4.80
2019-03-06T02:47:22.490Z,5.37
2019-03-06T02:49:49.933Z,5.13
2019-03-06T02:52:17.382Z,5.50
2019-03-06T02:54:44.829Z,5.30
2019-03-06T02:57:15.092Z,5.60
2019-03-06T02:59:43.259Z,5.37
2019-03-06T03:02:14.487Z,5.50
2019-03-06T03:04:47.043Z,5.10
2019-03-06T03:07:14.537Z,4.87
2019-03-06T03:09:43.053Z,4.63
2019-03-06T03:12:10.508Z,5.00
2019-03-06T03:14:37.933Z,4.63
2019-03-06T03:17:05.391Z,4.93
2019-03-06T03:19:33.884Z,4.83
2019-03-06T03:22:02.396Z,5.43
2019-03-06T03:24:29.881Z,5.23
2019-03-06T03:26:57.303Z,4.40
2019-03-06T03:29:25.967Z,5.37
2019-03-06T03:31:53.406Z,5.00
2019-03-06T03:34:20.808Z,5.73
2019-03-06T03:36:48.251Z,5.80
2019-03-06T03:39:16.763Z,5.37
2019-03-06T03:41:44.207Z,4.83
2019-03-06T03:44:11.629Z,5.20
2019-03-06T03:46:39.074Z,4.93
2019-03-06T03:49:06.485Z,4.67
2019-03-06T03:51:34.741Z,4.50
2019-03-06T03:54:02.154Z,4.17
2019-03-06T03:56:29.613Z,5.00
2019-03-06T03:58:58.318Z,4.47
2019-03-06T04:01:25.795Z,4.40
2019-03-06T04:03:53.241Z,3.80
2019-03-06T04:06:21.961Z,4.60
2019-03-06T04:08:49.399Z,3.80
2019-03-06T04:11:19.349Z,3.73
2019-03-06T04:13:47.114Z,3.73
2019-03-06T04:16:15.764Z,3.90
2019-03-06T04:18:46.878Z,3.87
2019-03-06T04:21:14.282Z,4.13
2019-03-06T04:23:41.772Z,3.27
2019-03-06T04:26:09.185Z,3.70
2019-03-06T04:28:36.651Z,3.07
2019-03-06T04:31:05.168Z,3.00
2019-03-06T04:33:32.579Z,3.20
2019-03-06T04:35:59.997Z,3.37
2019-03-06T04:38:27.429Z,3.30
2019-03-06T04:40:57.673Z,3.00
2019-03-06T04:43:26.611Z,2.60
2019-03-06T04:45:54.055Z,3.30
2019-03-06T04:48:21.461Z,2.50
2019-03-06T04:50:48.912Z,2.77
2019-03-06T04:53:16.336Z,2.60
2019-03-06T04:55:48.912Z,2.90
2019-03-06T04:58:16.329Z,2.20
2019-03-06T05:00:43.801Z,2.57
2019-03-06T05:03:11.257Z,1.97
2019-03-06T05:05:38.686Z,2.10
2019-03-06T05:08:06.096Z,2.20
2019-03-06T05:10:33.513Z,2.10
2019-03-06T05:13:00.953Z,2.13
2019-03-06T05:15:28.377Z,2.40
2019-03-06T05:17:58.537Z,1.97
2019-03-06T05:20:25.945Z,2.30
2019-03-06T05:22:54.685Z,1.97
2019-03-06T05:25:22.096Z,1.83
2019-03-06T05:27:49.572Z,1.93
2019-03-06T05:30:17.010Z,1.97
2019-03-06T05:32:54.194Z,2.70
2019-03-06T05:35:30.733Z,1.80
2019-03-06T05:38:10.035Z,2.00
2019-03-06T05:40:40.892Z,1.97
2019-03-06T05:43:11.375Z,2.03
2019-03-06T05:45:40.129Z,2.30
2019-03-06T05:48:07.579Z,2.10
2019-03-06T05:50:35.013Z,1.90
2019-03-06T05:53:09.791Z,1.90
2019-03-06T05:55:38.231Z,2.00
2019-03-06T05:58:05.676Z,2.10
2019-03-06T06:00:35.743Z,2.03
2019-03-06T06:03:03.144Z,1.90
2019-03-06T06:05:30.867Z,2.00
2019-03-06T06:07:58.562Z,2.47
2019-03-06T06:10:26.033Z,1.87
2019-03-06T06:12:53.464Z,2.00
2019-03-06T06:15:20.876Z,1.93
2019-03-06T06:17:50.591Z,1.87
2019-03-06T06:20:18.027Z,2.20
2019-03-06T06:23:00.911Z,1.90
2019-03-06T06:25:28.323Z,1.70
2019-03-06T06:27:55.785Z,1.83
2019-03-06T06:30:23.487Z,1.90
2019-03-06T06:32:51.288Z,2.03
2019-03-06T06:35:18.694Z,2.43
2019-03-06T06:37:46.124Z,1.53
2019-03-06T06:40:13.582Z,2.00
2019-03-06T06:42:41.064Z,1.87
2019-03-06T06:45:12.836Z,2.10
2019-03-06T06:48:07.866Z,2.20
2019-03-06T06:50:36.263Z,1.90
2019-03-06T06:53:13.236Z,1.57
2019-03-06T06:55:40.676Z,1.90
2019-03-06T06:58:20.447Z,1.97
2019-03-06T07:00:57.406Z,2.10
2019-03-06T07:03:59.037Z,2.13
2019-03-06T07:06:26.589Z,1.80
2019-03-06T07:08:54.012Z,2.37
2019-03-06T07:11:22.672Z,2.43
2019-03-06T07:13:59.085Z,1.90
2019-03-06T07:16:26.528Z,1.77
2019-03-06T07:19:12.090Z,2.13
2019-03-06T07:21:58.230Z,1.70
2019-03-06T07:24:34.446Z,1.77
2019-03-06T07:27:01.983Z,2.40
2019-03-06T07:29:42.041Z,1.97
2019-03-06T07:32:09.503Z,2.00
2019-03-06T07:34:48.430Z,1.60
2019-03-06T07:37:28.258Z,2.03
2019-03-06T07:39:50.490Z,1.67
2019-03-06T07:42:21.769Z,1.90
2019-03-06T07:45:25.968Z,2.07
2019-03-06T07:47:56.257Z,2.47
2019-03-06T07:50:32.278Z,2.00
2019-03-06T07:53:40.259Z,2.20
2019-03-06T07:56:08.020Z,2.03
2019-03-06T07:58:50.536Z,2.00
2019-03-06T08:01:17.999Z,2.50
2019-03-06T08:03:45.416Z,2.30
2019-03-06T08:06:13.833Z,2.00
2019-03-06T08:08:41.283Z,2.00
2019-03-06T08:11:09.563Z,2.10
2019-03-06T08:13:37.036Z,2.63
2019-03-06T08:16:04.490Z,2.40
2019-03-06T08:18:35.070Z,4.90
2019-03-06T08:21:14.753Z,2.00
2019-03-06T08:23:47.642Z,3.53
2019-03-06T08:26:15.140Z,2.67
2019-03-06T08:28:42.548Z,2.00
2019-03-06T08:31:21.384Z,2.37
2019-03-06T08:33:50.190Z,2.47
2019-03-06T08:36:18.259Z,2.60
2019-03-06T08:38:45.679Z,1.73
2019-03-06T08:41:13.135Z,1.83
2019-03-06T08:43:40.584Z,2.10
2019-03-06T08:46:16.271Z,2.13
2019-03-06T08:49:01.929Z,2.00
2019-03-06T08:51:41.342Z,2.33
2019-03-06T08:54:17.188Z,1.83
2019-03-06T08:56:57.916Z,2.43
2019-03-06T08:59:31.552Z,1.93
2019-03-06T09:02:17.976Z,2.30
2019-03-06T09:04:45.460Z,2.30
2019-03-06T09:07:32.106Z,2.20
2019-03-06T09:10:05.075Z,2.10
2019-03-06T09:12:35.536Z,2.27
2019-03-06T09:15:09.023Z,2.57
2019-03-06T09:17:39.307Z,2.07
2019-03-06T09:20:24.809Z,2.07
2019-03-06T09:22:58.197Z,2.13
2019-03-06T09:25:31.786Z,2.10
2019-03-06T09:28:12.641Z,1.90
2019-03-06T09:30:42.785Z,2.50
2019-03-06T09:33:11.568Z,2.43
2019-03-06T09:35:46.112Z,2.27
2019-03-06T09:38:16.625Z,2.10
2019-03-06T09:40:55.827Z,2.63
2019-03-06T09:43:35.335Z,2.70
2019-03-06T09:46:12.086Z,2.30
2019-03-06T09:48:39.546Z,2.27
2019-03-06T09:51:25.071Z,2.20
2019-03-06T09:53:52.659Z,2.27
2019-03-06T09:56:20.383Z,2.53
2019-03-06T09:58:50.892Z,2.33
2019-03-06T10:01:25.316Z,2.60
2019-03-06T10:04:01.166Z,2.57
2019-03-06T10:06:34.980Z,2.30
2019-03-06T10:09:08.023Z,2.80
2019-03-06T10:11:45.628Z,1.97
2019-03-06T10:14:31.560Z,2.47
2019-03-06T10:17:06.322Z,2.87
2019-03-06T10:19:34.109Z,2.53
2019-03-06T10:22:09.115Z,2.60
2019-03-06T10:24:36.591Z,2.27
2019-03-06T10:27:04.505Z,2.43
2019-03-06T10:29:32.012Z,2.40
2019-03-06T10:31:59.443Z,2.57
2019-03-06T10:34:27.103Z,2.50
2019-03-06T10:36:54.583Z,2.43
2019-03-06T10:39:23.058Z,2.53
2019-03-06T10:41:51.625Z,2.40
2019-03-06T10:44:19.351Z,2.30
2019-03-06T10:46:46.769Z,2.40
2019-03-06T10:49:14.226Z,2.80
2019-03-06T10:51:41.631Z,2.60
2019-03-06T10:54:09.144Z,2.27
2019-03-06T10:56:36.561Z,2.80
2019-03-06T10:59:04.077Z,2.40
2019-03-06T11:01:31.547Z,2.90
2019-03-06T11:04:18.443Z,2.73
2019-03-06T11:06:46.757Z,2.30
2019-03-06T11:09:15.402Z,2.40
2019-03-06T11:11:42.960Z,2.67
2019-03-06T11:14:10.366Z,3.10
2019-03-06T11:16:39.695Z,2.20
2019-03-06T11:19:07.118Z,2.50
2019-03-06T11:21:34.574Z,2.43
2019-03-06T11:24:02.045Z,3.00
2019-03-06T11:26:29.500Z,2.50
2019-03-06T11:29:00.727Z,2.47
2019-03-06T11:31:29.729Z,2.27
2019-03-06T11:33:57.155Z,2.33
2019-03-06T11:36:25.565Z,2.40
2019-03-06T11:38:55.489Z,2.50
2019-03-06T11:41:22.942Z,2.90
2019-03-06T11:43:51.540Z,2.47
2019-03-06T11:46:19.320Z,3.13
2019-03-06T11:48:46.782Z,2.30
2019-03-06T11:51:14.607Z,2.60
2019-03-06T11:53:42.099Z,2.07
2019-03-06T11:56:12.566Z,2.50
2019-03-06T11:58:39.968Z,2.47
2019-03-06T12:01:07.387Z,2.30
2019-03-06T12:03:35.267Z,2.50
2019-03-06T12:06:02.693Z,2.20
2019-03-06T12:08:33.018Z,3.00
2019-03-06T12:11:00.425Z,2.40
2019-03-06T12:13:27.864Z,2.00
2019-03-06T12:15:55.330Z,2.40
2019-03-06T12:18:25.336Z,2.30
2019-03-06T12:20:53.839Z,2.37
2019-03-06T12:23:21.287Z,2.20
2019-03-06T12:25:54.383Z,2.00
2019-03-06T12:28:21.847Z,2.53
2019-03-06T12:30:50.569Z,2.20
2019-03-06T12:33:20.662Z,2.30
2019-03-06T12:35:49.316Z,2.30
2019-03-06T12:38:17.951Z,2.27
2019-03-06T12:40:45.404Z,2.73
2019-03-06T12:43:15.011Z,2.53
2019-03-06T12:45:42.419Z,2.40
2019-03-06T12:48:09.855Z,2.30
2019-03-06T12:50:39.919Z,2.23
2019-03-06T12:53:08.413Z,2.03
2019-03-06T12:55:35.975Z,2.17
2019-03-06T12:58:03.443Z,2.30
2019-03-06T13:00:33.215Z,2.57
2019-03-06T13:03:00.658Z,2.20
2019-03-06T13:05:29.116Z,2.60
2019-03-06T13:07:56.517Z,1.97
2019-03-06T13:10:25.215Z,2.27
2019-03-06T13:12:52.958Z,2.23
2019-03-06T13:15:26.409Z,2.27
2019-03-06T13:17:53.836Z,2.70
2019-03-06T13:20:21.318Z,2.57
2019-03-06T13:22:50.146Z,2.27
2019-03-06T13:25:20.005Z,2.17
2019-03-06T13:27:54.420Z,2.67
2019-03-06T13:30:15.876Z,2.50
2019-03-06T13:33:00.360Z,2.50
2019-03-06T13:35:27.812Z,2.10
2019-03-06T13:37:56.186Z,2.50
2019-03-06T13:40:25.794Z,2.50
2019-03-06T13:42:53.231Z,2.77
2019-03-06T13:45:20.708Z,2.70
2019-03-06T13:47:50.936Z,3.00
2019-03-06T13:50:16.816Z,2.70
2019-03-06T13:52:46.763Z,2.70
2019-03-06T13:55:14.195Z,2.60
2019-03-06T13:57:41.656Z,2.40
2019-03-06T14:00:17.943Z,2.43
2019-03-06T14:02:45.453Z,2.73
2019-03-06T14:05:12.977Z,2.60
2019-03-06T14:07:40.479Z,2.83
2019-03-06T14:10:09.148Z,2.60
2019-03-06T14:12:38.083Z,3.00
2019-03-06T14:15:06.388Z,2.83
2019-03-06T14:17:33.829Z,2.33
2019-03-06T14:20:01.281Z,2.80
2019-03-06T14:22:28.687Z,2.60
2019-03-06T14:24:56.179Z,2.73
2019-03-06T14:27:23.613Z,2.93
2019-03-06T14:29:51.869Z,2.70
2019-03-06T14:32:19.335Z,3.10
2019-03-06T14:34:46.793Z,2.60
2019-03-06T14:37:14.216Z,2.30
2019-03-06T14:39:42.902Z,2.60
2019-03-06T14:42:10.662Z,2.40
2019-03-06T14:44:38.083Z,2.97
2019-03-06T14:47:05.544Z,2.80
2019-03-06T14:49:32.998Z,2.83
2019-03-06T14:52:06.935Z,2.60
2019-03-06T14:54:27.875Z,2.77
2019-03-06T14:56:55.305Z,2.87
2019-03-06T14:59:22.798Z,2.60
2019-03-06T15:01:50.235Z,2.60
2019-03-06T15:04:17.714Z,2.80
2019-03-06T15:06:45.151Z,2.67
2019-03-06T15:09:12.853Z,3.07
2019-03-06T15:11:40.272Z,2.83
2019-03-06T15:14:07.763Z,2.87
2019-03-06T15:16:35.242Z,3.00
2019-03-06T15:19:03.884Z,2.70
2019-03-06T15:21:31.317Z,2.50
2019-03-06T15:23:58.801Z,3.20
2019-03-06T15:26:27.437Z,3.33
2019-03-06T15:28:54.861Z,3.13
2019-03-06T15:31:22.313Z,3.10
2019-03-06T15:33:49.766Z,3.00
2019-03-06T15:36:19.600Z,2.50
2019-03-06T15:38:47.534Z,2.77
2019-03-06T15:41:14.937Z,3.00
2019-03-06T15:43:43.927Z,3.20
2019-03-06T15:46:11.345Z,3.03
2019-03-06T15:48:38.800Z,3.33
2019-03-06T15:51:06.263Z,3.03
2019-03-06T15:53:35.128Z,4.27
2019-03-06T15:56:02.636Z,3.57
2019-03-06T15:58:32.844Z,6.03
2019-03-06T16:01:00.664Z,4.50
2019-03-06T16:03:29.069Z,3.63
2019-03-06T16:05:57.598Z,3.73
2019-03-06T16:08:25.049Z,3.53
2019-03-06T16:10:52.490Z,3.70
2019-03-06T16:13:19.919Z,3.80
2019-03-06T16:15:48.797Z,3.73
2019-03-06T16:18:16.256Z,3.50
2019-03-06T16:20:43.703Z,4.00
2019-03-06T16:23:11.161Z,3.83
2019-03-06T16:25:40.144Z,4.00
2019-03-06T16:28:06.007Z,3.53
2019-03-06T16:30:33.491Z,3.60
2019-03-06T16:33:00.921Z,3.87
2019-03-06T16:35:28.347Z,4.07
2019-03-06T16:37:56.157Z,4.07
2019-03-06T16:40:23.571Z,4.13
2019-03-06T16:42:50.990Z,4.53
2019-03-06T16:45:18.476Z,3.97
2019-03-06T16:47:45.908Z,4.10
2019-03-06T16:50:16.177Z,4.20
2019-03-06T16:52:40.820Z,4.37
2019-03-06T16:55:13.983Z,4.40
2019-03-06T16:57:41.394Z,4.30
2019-03-06T17:00:21.156Z,4.73
2019-03-06T17:02:48.563Z,4.03
2019-03-06T17:05:16.021Z,3.90
2019-03-06T17:07:43.434Z,4.50
2019-03-06T17:10:14.624Z,4.57
2019-03-06T17:12:42.048Z,4.97
2019-03-06T17:15:09.479Z,4.60
2019-03-06T17:17:37.953Z,4.60
2019-03-06T17:20:05.386Z,4.60
2019-03-06T17:22:33.901Z,4.60
2019-03-06T17:25:01.375Z,4.77
2019-03-06T17:27:28.792Z,4.10
2019-03-06T17:29:56.234Z,4.17
2019-03-06T17:32:25.918Z,4.70
2019-03-06T17:34:53.326Z,4.60
2019-03-06T17:37:20.814Z,4.50
2019-03-06T17:39:48.470Z,4.23
2019-03-06T17:42:15.952Z,5.47
2019-03-06T17:44:43.362Z,4.63
2019-03-06T17:47:10.790Z,4.67
2019-03-06T17:49:38.191Z,5.03
2019-03-06T17:52:07.395Z,5.00
2019-03-06T17:54:33.115Z,4.97
2019-03-06T17:57:00.558Z,4.97
2019-03-06T17:59:27.971Z,4.67
2019-03-06T18:01:55.414Z,4.70
2019-03-06T18:04:22.880Z,4.60
2019-03-06T18:06:50.309Z,4.90
2019-03-06T18:09:18.590Z,4.50
2019-03-06T18:11:46.006Z,4.87
2019-03-06T18:14:20.499Z,5.17
2019-03-06T18:16:47.986Z,4.57
2019-03-06T18:19:16.835Z,4.13
2019-03-06T18:21:49.176Z,4.23
2019-03-06T18:24:16.589Z,5.30
2019-03-06T18:26:44.125Z,4.73
2019-03-06T18:29:11.525Z,5.17
2019-03-06T18:31:38.970Z,4.80
2019-03-06T18:34:06.392Z,5.00
2019-03-06T18:36:33.829Z,5.20
2019-03-06T18:39:01.238Z,5.60
2019-03-06T18:41:29.581Z,4.83
2019-03-06T18:44:04.232Z,5.03
2019-03-06T18:46:31.638Z,5.23
2019-03-06T18:48:59.095Z,5.93
2019-03-06T18:51:26.518Z,5.70
2019-03-06T18:53:53.934Z,4.90
2019-03-06T18:56:21.383Z,5.40
2019-03-06T18:58:48.794Z,5.77
2019-03-06T19:01:16.257Z,5.73
2019-03-06T19:03:43.703Z,5.93
2019-03-06T19:06:11.423Z,5.50
2019-03-06T19:08:38.884Z,5.40
2019-03-06T19:11:06.302Z,5.53
2019-03-06T19:13:33.889Z,5.70
2019-03-06T19:16:02.359Z,5.93
2019-03-06T19:18:30.755Z,6.10
2019-03-06T19:21:00.947Z,6.07
2019-03-06T19:23:28.361Z,6.97
2019-03-06T19:25:55.814Z,5.70
2019-03-06T19:28:24.669Z,6.10
2019-03-06T19:30:52.174Z,6.77
2019-03-06T19:33:19.603Z,6.30
2019-03-06T19:35:47.047Z,7.37
2019-03-06T19:38:14.457Z,6.70
2019-03-06T19:40:41.892Z,7.00
2019-03-06T19:43:09.309Z,6.83
2019-03-06T19:45:36.752Z,7.10
2019-03-06T19:48:04.167Z,6.80
2019-03-06T19:50:31.638Z,6.63
2019-03-06T19:52:59.107Z,6.60
2019-03-06T19:55:27.804Z,6.97
2019-03-06T19:57:56.504Z,6.50
2019-03-06T20:00:23.929Z,7.00
2019-03-06T20:02:51.386Z,7.67
2019-03-06T20:05:18.918Z,7.07
2019-03-06T20:07:47.202Z,7.47
2019-03-06T20:10:13.772Z,6.40
2019-03-06T20:12:41.207Z,7.33
2019-03-06T20:15:08.657Z,7.37
2019-03-06T20:17:36.136Z,7.67
2019-03-06T20:20:03.598Z,6.97
2019-03-06T20:22:31.028Z,7.80
2019-03-06T20:24:58.557Z,7.37
2019-03-06T20:27:25.965Z,7.80
2019-03-06T20:29:53.445Z,7.23
2019-03-06T20:32:20.972Z,7.60
2019-03-06T20:34:48.428Z,7.10
2019-03-06T20:37:15.922Z,6.73
2019-03-06T20:39:43.375Z,6.67
2019-03-06T20:42:10.820Z,6.77
2019-03-06T20:44:38.293Z,7.50
2019-03-06T20:47:05.732Z,7.20
2019-03-06T20:49:35.979Z,7.17
2019-03-06T20:52:03.442Z,7.13
2019-03-06T20:54:30.916Z,6.53
2019-03-06T20:56:58.373Z,7.40
2019-03-06T20:59:25.827Z,7.03
2019-03-06T21:02:00.454Z,6.83
2019-03-06T21:04:27.862Z,7.27
2019-03-06T21:06:55.299Z,7.17
2019-03-06T21:09:22.714Z,7.00
2019-03-06T21:11:50.139Z,7.70
2019-03-06T21:14:17.623Z,7.43
2019-03-06T21:16:45.064Z,6.97
2019-03-06T21:19:12.473Z,6.97
2019-03-06T21:21:39.880Z,6.60
2019-03-06T21:24:07.412Z,6.67
2019-03-06T21:26:34.851Z,7.07
2019-03-06T21:29:02.298Z,6.93
2019-03-06T21:31:29.728Z,6.70
2019-03-06T21:33:59.878Z,7.30
2019-03-06T21:36:27.397Z,5.90
2019-03-06T21:38:54.874Z,6.30
2019-03-06T21:41:22.311Z,7.17
2019-03-06T21:43:51.807Z,6.27
2019-03-06T21:46:19.211Z,6.90
2019-03-06T21:48:46.659Z,6.80
2019-03-06T21:51:14.096Z,6.33
2019-03-06T21:53:41.547Z,6.07
2019-03-06T21:56:08.989Z,6.60
2019-03-06T21:58:36.454Z,6.20
2019-03-06T22:01:03.913Z,6.77
2019-03-06T22:03:31.397Z,6.20
2019-03-06T22:05:58.813Z,5.87
2019-03-06T22:08:26.341Z,6.13
2019-03-06T22:10:59.414Z,6.40
2019-03-06T22:13:26.926Z,5.90
2019-03-06T22:15:54.447Z,6.23
2019-03-06T22:18:22.075Z,6.00
2019-03-06T22:20:49.631Z,6.73
2019-03-06T22:23:19.182Z,5.97
2019-03-06T22:25:44.821Z,5.40
2019-03-06T22:28:12.303Z,6.70
2019-03-06T22:30:39.796Z,5.80
2019-03-06T22:33:10.416Z,5.30
2019-03-06T22:35:40.433Z,5.57
2019-03-06T22:38:34.509Z,5.33
2019-03-06T22:40:43.914Z,6.00
2019-03-06T22:43:20.196Z,4.90
2019-03-06T22:45:53.301Z,5.27
2019-03-06T22:48:23.386Z,5.10
2019-03-06T22:50:50.983Z,5.63
2019-03-06T22:53:18.614Z,5.57
2019-03-06T22:55:46.034Z,5.43
2019-03-06T22:58:25.101Z,5.10
2019-03-06T23:00:57.368Z,5.57
2019-03-06T23:03:22.239Z,5.10
2019-03-06T23:05:49.642Z,5.07
2019-03-06T23:08:23.273Z,5.37
2019-03-06T23:10:50.821Z,4.90
2019-03-06T23:13:18.285Z,5.10
2019-03-06T23:15:48.061Z,5.10
2019-03-06T23:18:15.537Z,6.00
2019-03-06T23:20:43.002Z,5.53
2019-03-06T23:23:10.444Z,6.03
2019-03-06T23:25:37.850Z,5.37
2019-03-06T23:28:05.281Z,5.20
2019-03-06T23:30:32.695Z,5.73
2019-03-06T23:33:00.115Z,5.13
2019-03-06T23:35:27.552Z,4.90
2019-03-06T23:37:54.967Z,4.80
2019-03-06T23:40:22.410Z,5.70
2019-03-06T23:42:49.811Z,5.37
2019-03-06T23:45:17.209Z,5.30
2019-03-06T23:47:44.645Z,5.00
2019-03-06T23:50:12.057Z,4.47
2019-03-06T23:52:54.757Z,4.93
2019-03-06T23:55:22.149Z,5.23
2019-03-06T23:57:49.609Z,4.80
